sensor_id;sensor_type;location;lat;lon;timestamp;P1;durP1;ratioP1;P2;durP2;ratioP2
7575;SDS011;3829;50.798;4.358;2023-03-14T00:02:18;5.37;;;1.90;;
7575;SDS011;3829;50.798;4.358;2023-03-14T00:04:44;7.97;;;1.60;;
7575;SDS011;3829;50.798;4.358;2023-03-14T00:07:10;7.37;;;1.63;;
7575;SDS011;3829;50.798;4.358;2023-03-14T00:09:36;8.10;;;1.87;;
7575;SDS011;3829;50.798;4.358;2023-03-14T00:12:02;7.53;;;1.67;;
7575;SDS011;3829;50.798;4.358;2023-03-14T00:14:28;8.10;;;1.80;;
7575;SDS011;3829;50.798;4.358;2023-03-14T00:16:54;5.37;;;1.90;;
7575;SDS011;3829;50.798;4.358;2023-03-14T00:19:20;3.23;;;1.47;;
7575;SDS011;3829;50.798;4.358;2023-03-14T00:21:46;6.83;;;1.23;;
7575;SDS011;3829;50.798;4.358;2023-03-14T00:24:11;6.77;;;1.53;;
7575;SDS011;3829;50.798;4.358;2023-03-14T00:26:37;7.37;;;1.97;;
7575;SDS011;3829;50.798;4.358;2023-03-14T00:29:03;7.97;;;1.90;;
7575;SDS011;3829;50.798;4.358;2023-03-14T00:31:29;7.07;;;2.00;;
7575;SDS011;3829;50.798;4.358;2023-03-14T00:33:54;11.97;;;1.77;;
7575;SDS011;3829;50.798;4.358;2023-03-14T00:36:20;3.50;;;1.20;;
7575;SDS011;3829;50.798;4.358;2023-03-14T00:38:47;6.57;;;1.60;;
7575;SDS011;3829;50.798;4.358;2023-03-14T00:41:16;5.40;;;1.77;;
7575;SDS011;3829;50.798;4.358;2023-03-14T00:43:44;5.50;;;1.67;;
7575;SDS011;3829;50.798;4.358;2023-03-14T00:46:10;5.87;;;1.90;;
7575;SDS011;3829;50.798;4.358;2023-03-14T00:48:37;6.17;;;1.80;;
7575;SDS011;3829;50.798;4.358;2023-03-14T00:51:03;8.60;;;1.93;;
7575;SDS011;3829;50.798;4.358;2023-03-14T00:53:30;8.67;;;2.03;;
7575;SDS011;3829;50.798;4.358;2023-03-14T00:55:56;6.50;;;1.40;;
7575;SDS011;3829;50.798;4.358;2023-03-14T00:58:27;10.83;;;2.27;;
7575;SDS011;3829;50.798;4.358;2023-03-14T01:00:52;8.30;;;1.67;;
7575;SDS011;3829;50.798;4.358;2023-03-14T01:03:18;7.33;;;2.60;;
7575;SDS011;3829;50.798;4.358;2023-03-14T01:05:43;7.13;;;1.73;;
7575;SDS011;3829;50.798;4.358;2023-03-14T01:08:09;8.13;;;1.47;;
7575;SDS011;3829;50.798;4.358;2023-03-14T01:10:40;7.40;;;1.70;;
7575;SDS011;3829;50.798;4.358;2023-03-14T01:13:05;8.90;;;2.27;;
7575;SDS011;3829;50.798;4.358;2023-03-14T01:15:32;7.67;;;2.43;;
7575;SDS011;3829;50.798;4.358;2023-03-14T01:17:58;6.80;;;1.70;;
7575;SDS011;3829;50.798;4.358;2023-03-14T01:20:24;10.23;;;2.70;;
7575;SDS011;3829;50.798;4.358;2023-03-14T01:22:50;6.63;;;1.87;;
7575;SDS011;3829;50.798;4.358;2023-03-14T01:25:16;8.37;;;1.90;;
7575;SDS011;3829;50.798;4.358;2023-03-14T01:27:42;9.63;;;2.00;;
7575;SDS011;3829;50.798;4.358;2023-03-14T01:30:09;8.67;;;1.80;;
7575;SDS011;3829;50.798;4.358;2023-03-14T01:32:35;10.00;;;1.53;;
7575;SDS011;3829;50.798;4.358;2023-03-14T01:35:01;6.67;;;1.73;;
7575;SDS011;3829;50.798;4.358;2023-03-14T01:37:28;6.70;;;1.40;;
7575;SDS011;3829;50.798;4.358;2023-03-14T01:39:53;9.90;;;1.47;;
7575;SDS011;3829;50.798;4.358;2023-03-14T01:42:19;4.50;;;1.27;;
7575;SDS011;3829;50.798;4.358;2023-03-14T01:47:17;7.90;;;1.40;;
7575;SDS011;3829;50.798;4.358;2023-03-14T01:49:43;4.33;;;1.57;;
7575;SDS011;3829;50.798;4.358;2023-03-14T01:52:17;8.23;;;1.43;;
7575;SDS011;3829;50.798;4.358;2023-03-14T01:54:50;4.73;;;0.93;;
7575;SDS011;3829;50.798;4.358;2023-03-14T01:57:21;3.33;;;1.10;;
7575;SDS011;3829;50.798;4.358;2023-03-14T01:59:58;6.20;;;1.37;;
7575;SDS011;3829;50.798;4.358;2023-03-14T02:02:28;2.50;;;1.20;;
7575;SDS011;3829;50.798;4.358;2023-03-14T02:04:54;11.37;;;1.63;;
7575;SDS011;3829;50.798;4.358;2023-03-14T02:07:38;1.73;;;1.00;;
7575;SDS011;3829;50.798;4.358;2023-03-14T02:10:15;6.17;;;1.10;;
7575;SDS011;3829;50.798;4.358;2023-03-14T02:12:44;4.93;;;1.00;;
7575;SDS011;3829;50.798;4.358;2023-03-14T02:15:11;7.20;;;1.33;;
7575;SDS011;3829;50.798;4.358;2023-03-14T02:17:37;3.40;;;1.27;;
7575;SDS011;3829;50.798;4.358;2023-03-14T02:22:53;2.53;;;1.03;;
7575;SDS011;3829;50.798;4.358;2023-03-14T02:28:18;5.07;;;1.30;;
7575;SDS011;3829;50.798;4.358;2023-03-14T02:30:45;5.83;;;1.20;;
7575;SDS011;3829;50.798;4.358;2023-03-14T02:33:12;2.60;;;1.00;;
7575;SDS011;3829;50.798;4.358;2023-03-14T02:35:46;9.33;;;1.97;;
7575;SDS011;3829;50.798;4.358;2023-03-14T02:38:19;1.63;;;1.30;;
7575;SDS011;3829;50.798;4.358;2023-03-14T02:40:51;6.37;;;1.93;;
7575;SDS011;3829;50.798;4.358;2023-03-14T02:43:17;5.60;;;1.50;;
7575;SDS011;3829;50.798;4.358;2023-03-14T02:45:43;8.47;;;1.70;;
7575;SDS011;3829;50.798;4.358;2023-03-14T02:48:12;6.40;;;2.03;;
7575;SDS011;3829;50.798;4.358;2023-03-14T02:50:44;4.53;;;2.17;;
7575;SDS011;3829;50.798;4.358;2023-03-14T02:53:12;5.20;;;2.40;;
7575;SDS011;3829;50.798;4.358;2023-03-14T02:55:44;11.10;;;2.63;;
7575;SDS011;3829;50.798;4.358;2023-03-14T02:58:11;6.00;;;2.57;;
7575;SDS011;3829;50.798;4.358;2023-03-14T03:00:37;9.70;;;3.00;;
7575;SDS011;3829;50.798;4.358;2023-03-14T03:03:03;11.37;;;3.17;;
7575;SDS011;3829;50.798;4.358;2023-03-14T03:05:31;13.17;;;3.00;;
7575;SDS011;3829;50.798;4.358;2023-03-14T03:07:57;13.70;;;2.90;;
7575;SDS011;3829;50.798;4.358;2023-03-14T03:10:22;11.57;;;2.77;;
7575;SDS011;3829;50.798;4.358;2023-03-14T03:12:48;11.93;;;2.77;;
7575;SDS011;3829;50.798;4.358;2023-03-14T03:15:14;10.60;;;2.63;;
7575;SDS011;3829;50.798;4.358;2023-03-14T03:17:40;9.90;;;2.93;;
7575;SDS011;3829;50.798;4.358;2023-03-14T03:20:05;9.50;;;2.87;;
7575;SDS011;3829;50.798;4.358;2023-03-14T03:22:34;13.47;;;3.73;;
7575;SDS011;3829;50.798;4.358;2023-03-14T03:25:00;11.23;;;3.50;;
7575;SDS011;3829;50.798;4.358;2023-03-14T03:27:26;13.37;;;3.30;;
7575;SDS011;3829;50.798;4.358;2023-03-14T03:29:56;14.73;;;3.50;;
7575;SDS011;3829;50.798;4.358;2023-03-14T03:32:21;11.17;;;3.23;;
7575;SDS011;3829;50.798;4.358;2023-03-14T03:34:47;11.00;;;3.50;;
7575;SDS011;3829;50.798;4.358;2023-03-14T03:37:12;10.93;;;3.30;;
7575;SDS011;3829;50.798;4.358;2023-03-14T03:39:38;7.63;;;3.70;;
7575;SDS011;3829;50.798;4.358;2023-03-14T03:42:03;14.00;;;3.70;;
7575;SDS011;3829;50.798;4.358;2023-03-14T03:44:29;10.33;;;3.87;;
7575;SDS011;3829;50.798;4.358;2023-03-14T03:46:54;8.47;;;3.17;;
7575;SDS011;3829;50.798;4.358;2023-03-14T03:49:20;11.50;;;3.53;;
7575;SDS011;3829;50.798;4.358;2023-03-14T03:51:46;8.57;;;2.97;;
7575;SDS011;3829;50.798;4.358;2023-03-14T03:54:11;11.30;;;3.30;;
7575;SDS011;3829;50.798;4.358;2023-03-14T03:56:37;10.37;;;3.00;;
7575;SDS011;3829;50.798;4.358;2023-03-14T03:59:02;9.43;;;3.97;;
7575;SDS011;3829;50.798;4.358;2023-03-14T04:01:28;8.97;;;3.37;;
7575;SDS011;3829;50.798;4.358;2023-03-14T04:03:53;10.20;;;4.50;;
7575;SDS011;3829;50.798;4.358;2023-03-14T04:06:19;11.73;;;4.33;;
7575;SDS011;3829;50.798;4.358;2023-03-14T04:08:45;11.13;;;4.00;;
7575;SDS011;3829;50.798;4.358;2023-03-14T04:11:10;11.93;;;4.07;;
7575;SDS011;3829;50.798;4.358;2023-03-14T04:13:36;10.87;;;3.90;;
7575;SDS011;3829;50.798;4.358;2023-03-14T04:16:02;6.60;;;4.13;;
7575;SDS011;3829;50.798;4.358;2023-03-14T04:18:27;10.63;;;4.30;;
7575;SDS011;3829;50.798;4.358;2023-03-14T04:20:56;13.77;;;3.93;;
7575;SDS011;3829;50.798;4.358;2023-03-14T04:23:22;10.60;;;3.90;;
7575;SDS011;3829;50.798;4.358;2023-03-14T04:25:49;9.60;;;4.13;;
7575;SDS011;3829;50.798;4.358;2023-03-14T04:28:15;8.90;;;4.20;;
7575;SDS011;3829;50.798;4.358;2023-03-14T04:30:41;12.23;;;4.87;;
7575;SDS011;3829;50.798;4.358;2023-03-14T04:33:06;9.07;;;4.70;;
7575;SDS011;3829;50.798;4.358;2023-03-14T04:35:32;11.33;;;5.10;;
7575;SDS011;3829;50.798;4.358;2023-03-14T04:37:59;9.10;;;4.87;;
7575;SDS011;3829;50.798;4.358;2023-03-14T04:40:25;9.70;;;4.80;;
7575;SDS011;3829;50.798;4.358;2023-03-14T04:42:51;9.87;;;5.07;;
7575;SDS011;3829;50.798;4.358;2023-03-14T04:45:16;10.63;;;4.77;;
7575;SDS011;3829;50.798;4.358;2023-03-14T04:47:42;11.93;;;4.60;;
7575;SDS011;3829;50.798;4.358;2023-03-14T04:50:08;11.03;;;4.23;;
7575;SDS011;3829;50.798;4.358;2023-03-14T04:52:35;8.60;;;4.40;;
7575;SDS011;3829;50.798;4.358;2023-03-14T04:55:00;9.93;;;4.13;;
7575;SDS011;3829;50.798;4.358;2023-03-14T04:57:26;11.27;;;4.20;;
7575;SDS011;3829;50.798;4.358;2023-03-14T04:59:52;5.13;;;3.40;;
7575;SDS011;3829;50.798;4.358;2023-03-14T05:02:17;7.17;;;3.50;;
7575;SDS011;3829;50.798;4.358;2023-03-14T05:04:43;8.83;;;3.23;;
7575;SDS011;3829;50.798;4.358;2023-03-14T05:07:08;8.37;;;3.30;;
7575;SDS011;3829;50.798;4.358;2023-03-14T05:09:34;5.23;;;3.27;;
7575;SDS011;3829;50.798;4.358;2023-03-14T05:12:00;8.70;;;3.63;;
7575;SDS011;3829;50.798;4.358;2023-03-14T05:14:25;4.37;;;2.77;;
7575;SDS011;3829;50.798;4.358;2023-03-14T05:16:51;4.37;;;2.90;;
7575;SDS011;3829;50.798;4.358;2023-03-14T05:19:16;3.63;;;2.30;;
7575;SDS011;3829;50.798;4.358;2023-03-14T05:21:42;4.67;;;1.97;;
7575;SDS011;3829;50.798;4.358;2023-03-14T05:24:08;4.10;;;2.00;;
7575;SDS011;3829;50.798;4.358;2023-03-14T05:26:33;1.87;;;1.73;;
7575;SDS011;3829;50.798;4.358;2023-03-14T05:28:59;3.90;;;2.07;;
7575;SDS011;3829;50.798;4.358;2023-03-14T05:31:24;6.00;;;2.10;;
7575;SDS011;3829;50.798;4.358;2023-03-14T05:33:50;2.13;;;1.93;;
7575;SDS011;3829;50.798;4.358;2023-03-14T05:36:15;3.97;;;2.30;;
7575;SDS011;3829;50.798;4.358;2023-03-14T05:38:41;4.27;;;2.47;;
7575;SDS011;3829;50.798;4.358;2023-03-14T05:41:07;3.63;;;1.97;;
7575;SDS011;3829;50.798;4.358;2023-03-14T05:43:33;2.43;;;1.90;;
7575;SDS011;3829;50.798;4.358;2023-03-14T05:45:58;5.37;;;2.53;;
7575;SDS011;3829;50.798;4.358;2023-03-14T05:48:24;6.77;;;2.70;;
7575;SDS011;3829;50.798;4.358;2023-03-14T05:50:58;6.20;;;2.63;;
7575;SDS011;3829;50.798;4.358;2023-03-14T05:53:24;3.10;;;2.40;;
7575;SDS011;3829;50.798;4.358;2023-03-14T05:55:52;4.07;;;3.00;;
7575;SDS011;3829;50.798;4.358;2023-03-14T05:58:18;4.67;;;2.30;;
7575;SDS011;3829;50.798;4.358;2023-03-14T06:00:44;5.60;;;2.50;;
7575;SDS011;3829;50.798;4.358;2023-03-14T06:03:09;5.57;;;2.60;;
7575;SDS011;3829;50.798;4.358;2023-03-14T06:05:35;3.60;;;2.70;;
7575;SDS011;3829;50.798;4.358;2023-03-14T06:08:01;4.30;;;2.73;;
7575;SDS011;3829;50.798;4.358;2023-03-14T06:10:27;4.17;;;2.80;;
7575;SDS011;3829;50.798;4.358;2023-03-14T06:12:52;5.00;;;2.87;;
7575;SDS011;3829;50.798;4.358;2023-03-14T06:15:18;4.20;;;2.93;;
7575;SDS011;3829;50.798;4.358;2023-03-14T06:17:44;3.70;;;2.60;;
7575;SDS011;3829;50.798;4.358;2023-03-14T06:20:09;6.43;;;2.50;;
7575;SDS011;3829;50.798;4.358;2023-03-14T06:22:35;5.07;;;2.87;;
7575;SDS011;3829;50.798;4.358;2023-03-14T06:25:01;5.97;;;2.57;;
7575;SDS011;3829;50.798;4.358;2023-03-14T06:27:28;3.97;;;2.40;;
7575;SDS011;3829;50.798;4.358;2023-03-14T06:29:54;3.50;;;2.60;;
7575;SDS011;3829;50.798;4.358;2023-03-14T06:32:19;5.47;;;3.00;;
7575;SDS011;3829;50.798;4.358;2023-03-14T06:34:45;7.93;;;3.13;;
7575;SDS011;3829;50.798;4.358;2023-03-14T06:37:11;9.50;;;2.83;;
7575;SDS011;3829;50.798;4.358;2023-03-14T06:39:37;7.23;;;2.83;;
7575;SDS011;3829;50.798;4.358;2023-03-14T06:42:03;6.67;;;3.17;;
7575;SDS011;3829;50.798;4.358;2023-03-14T06:44:29;7.87;;;2.57;;
7575;SDS011;3829;50.798;4.358;2023-03-14T06:46:55;4.03;;;2.63;;
7575;SDS011;3829;50.798;4.358;2023-03-14T06:49:21;4.70;;;2.37;;
7575;SDS011;3829;50.798;4.358;2023-03-14T06:51:46;4.60;;;2.33;;
7575;SDS011;3829;50.798;4.358;2023-03-14T06:54:12;3.77;;;2.20;;
7575;SDS011;3829;50.798;4.358;2023-03-14T06:56:38;4.03;;;1.83;;
7575;SDS011;3829;50.798;4.358;2023-03-14T06:59:04;3.77;;;2.10;;
7575;SDS011;3829;50.798;4.358;2023-03-14T07:01:30;3.40;;;2.43;;
7575;SDS011;3829;50.798;4.358;2023-03-14T07:03:57;3.30;;;2.30;;
7575;SDS011;3829;50.798;4.358;2023-03-14T07:06:23;2.80;;;2.23;;
7575;SDS011;3829;50.798;4.358;2023-03-14T07:08:50;5.67;;;2.77;;
7575;SDS011;3829;50.798;4.358;2023-03-14T07:11:16;7.43;;;3.10;;
7575;SDS011;3829;50.798;4.358;2023-03-14T07:13:41;3.37;;;2.33;;
7575;SDS011;3829;50.798;4.358;2023-03-14T07:16:07;2.60;;;2.13;;
7575;SDS011;3829;50.798;4.358;2023-03-14T07:18:33;6.53;;;2.60;;
7575;SDS011;3829;50.798;4.358;2023-03-14T07:20:59;3.03;;;2.20;;
7575;SDS011;3829;50.798;4.358;2023-03-14T07:23:25;2.60;;;2.10;;
7575;SDS011;3829;50.798;4.358;2023-03-14T07:25:50;5.13;;;2.67;;
7575;SDS011;3829;50.798;4.358;2023-03-14T07:28:18;2.97;;;2.00;;
7575;SDS011;3829;50.798;4.358;2023-03-14T07:30:45;8.87;;;3.07;;
7575;SDS011;3829;50.798;4.358;2023-03-14T07:33:12;3.47;;;2.07;;
7575;SDS011;3829;50.798;4.358;2023-03-14T07:35:38;6.13;;;2.40;;
7575;SDS011;3829;50.798;4.358;2023-03-14T07:38:03;2.87;;;2.53;;
7575;SDS011;3829;50.798;4.358;2023-03-14T07:40:29;9.60;;;2.50;;
7575;SDS011;3829;50.798;4.358;2023-03-14T07:42:54;4.20;;;2.33;;
7575;SDS011;3829;50.798;4.358;2023-03-14T07:45:20;4.00;;;2.53;;
7575;SDS011;3829;50.798;4.358;2023-03-14T07:47:46;8.07;;;2.40;;
7575;SDS011;3829;50.798;4.358;2023-03-14T07:50:11;5.63;;;2.50;;
7575;SDS011;3829;50.798;4.358;2023-03-14T07:52:37;5.40;;;2.90;;
7575;SDS011;3829;50.798;4.358;2023-03-14T07:55:03;6.77;;;3.40;;
7575;SDS011;3829;50.798;4.358;2023-03-14T07:57:29;6.30;;;3.30;;
7575;SDS011;3829;50.798;4.358;2023-03-14T07:59:54;6.70;;;3.07;;
7575;SDS011;3829;50.798;4.358;2023-03-14T08:02:20;5.07;;;2.87;;
7575;SDS011;3829;50.798;4.358;2023-03-14T08:04:47;8.13;;;4.07;;
7575;SDS011;3829;50.798;4.358;2023-03-14T08:07:13;6.63;;;3.93;;
7575;SDS011;3829;50.798;4.358;2023-03-14T08:09:39;6.43;;;3.37;;
7575;SDS011;3829;50.798;4.358;2023-03-14T08:12:05;8.43;;;3.70;;
7575;SDS011;3829;50.798;4.358;2023-03-14T08:14:30;12.50;;;5.00;;
7575;SDS011;3829;50.798;4.358;2023-03-14T08:16:57;8.60;;;3.90;;
7575;SDS011;3829;50.798;4.358;2023-03-14T08:19:23;9.47;;;3.87;;
7575;SDS011;3829;50.798;4.358;2023-03-14T08:21:49;7.83;;;3.97;;
7575;SDS011;3829;50.798;4.358;2023-03-14T08:24:15;9.13;;;4.30;;
7575;SDS011;3829;50.798;4.358;2023-03-14T08:26:40;8.93;;;3.90;;
7575;SDS011;3829;50.798;4.358;2023-03-14T08:29:06;5.87;;;3.60;;
7575;SDS011;3829;50.798;4.358;2023-03-14T08:31:33;6.20;;;3.77;;
7575;SDS011;3829;50.798;4.358;2023-03-14T08:34:00;6.93;;;3.83;;
7575;SDS011;3829;50.798;4.358;2023-03-14T08:36:26;7.30;;;3.33;;
7575;SDS011;3829;50.798;4.358;2023-03-14T08:38:52;16.53;;;3.67;;
7575;SDS011;3829;50.798;4.358;2023-03-14T08:41:19;10.20;;;3.23;;
7575;SDS011;3829;50.798;4.358;2023-03-14T08:43:44;6.27;;;2.93;;
7575;SDS011;3829;50.798;4.358;2023-03-14T08:46:10;6.17;;;3.00;;
7575;SDS011;3829;50.798;4.358;2023-03-14T08:48:36;9.07;;;3.77;;
7575;SDS011;3829;50.798;4.358;2023-03-14T08:51:08;9.93;;;3.07;;
7575;SDS011;3829;50.798;4.358;2023-03-14T08:53:35;10.17;;;3.17;;
7575;SDS011;3829;50.798;4.358;2023-03-14T08:56:02;7.33;;;3.20;;
7575;SDS011;3829;50.798;4.358;2023-03-14T08:58:28;8.77;;;3.20;;
7575;SDS011;3829;50.798;4.358;2023-03-14T09:00:54;7.73;;;2.93;;
7575;SDS011;3829;50.798;4.358;2023-03-14T09:03:20;10.43;;;2.97;;
7575;SDS011;3829;50.798;4.358;2023-03-14T09:05:48;7.13;;;2.63;;
7575;SDS011;3829;50.798;4.358;2023-03-14T09:08:15;6.80;;;3.40;;
7575;SDS011;3829;50.798;4.358;2023-03-14T09:10:40;6.23;;;3.50;;
7575;SDS011;3829;50.798;4.358;2023-03-14T09:13:06;11.40;;;3.73;;
7575;SDS011;3829;50.798;4.358;2023-03-14T09:15:31;7.50;;;3.30;;
7575;SDS011;3829;50.798;4.358;2023-03-14T09:17:57;11.57;;;3.80;;
7575;SDS011;3829;50.798;4.358;2023-03-14T09:20:23;10.50;;;3.80;;
7575;SDS011;3829;50.798;4.358;2023-03-14T09:22:49;9.93;;;3.50;;
7575;SDS011;3829;50.798;4.358;2023-03-14T09:25:14;18.97;;;4.43;;
7575;SDS011;3829;50.798;4.358;2023-03-14T09:27:40;8.40;;;3.43;;
7575;SDS011;3829;50.798;4.358;2023-03-14T09:30:06;11.63;;;3.43;;
7575;SDS011;3829;50.798;4.358;2023-03-14T09:32:32;9.67;;;4.00;;
7575;SDS011;3829;50.798;4.358;2023-03-14T09:34:58;9.93;;;3.40;;
7575;SDS011;3829;50.798;4.358;2023-03-14T09:37:23;7.03;;;3.30;;
7575;SDS011;3829;50.798;4.358;2023-03-14T09:39:49;10.63;;;3.07;;
7575;SDS011;3829;50.798;4.358;2023-03-14T09:42:16;8.63;;;3.70;;
7575;SDS011;3829;50.798;4.358;2023-03-14T09:44:53;6.57;;;2.70;;
7575;SDS011;3829;50.798;4.358;2023-03-14T09:47:21;7.37;;;2.93;;
7575;SDS011;3829;50.798;4.358;2023-03-14T09:49:48;7.67;;;2.57;;
7575;SDS011;3829;50.798;4.358;2023-03-14T09:52:15;8.00;;;2.87;;
7575;SDS011;3829;50.798;4.358;2023-03-14T09:54:54;10.30;;;2.27;;
7575;SDS011;3829;50.798;4.358;2023-03-14T09:57:25;10.50;;;3.07;;
7575;SDS011;3829;50.798;4.358;2023-03-14T09:59:52;5.20;;;2.33;;
7575;SDS011;3829;50.798;4.358;2023-03-14T10:02:32;5.67;;;2.77;;
7575;SDS011;3829;50.798;4.358;2023-03-14T10:04:59;9.60;;;2.80;;
7575;SDS011;3829;50.798;4.358;2023-03-14T10:07:29;8.40;;;3.30;;
7575;SDS011;3829;50.798;4.358;2023-03-14T10:09:56;5.53;;;2.63;;
7575;SDS011;3829;50.798;4.358;2023-03-14T10:12:44;7.03;;;2.93;;
7575;SDS011;3829;50.798;4.358;2023-03-14T10:15:11;11.90;;;2.93;;
7575;SDS011;3829;50.798;4.358;2023-03-14T10:17:44;7.73;;;3.07;;
7575;SDS011;3829;50.798;4.358;2023-03-14T10:22:57;6.50;;;2.23;;
7575;SDS011;3829;50.798;4.358;2023-03-14T10:25:27;4.63;;;2.20;;
7575;SDS011;3829;50.798;4.358;2023-03-14T10:27:54;5.37;;;1.70;;
7575;SDS011;3829;50.798;4.358;2023-03-14T10:30:32;7.27;;;2.27;;
7575;SDS011;3829;50.798;4.358;2023-03-14T10:35:52;6.87;;;1.97;;
7575;SDS011;3829;50.798;4.358;2023-03-14T10:38:19;9.83;;;2.17;;
7575;SDS011;3829;50.798;4.358;2023-03-14T10:40:48;4.23;;;1.83;;
7575;SDS011;3829;50.798;4.358;2023-03-14T10:43:17;8.07;;;2.10;;
7575;SDS011;3829;50.798;4.358;2023-03-14T10:46:11;6.83;;;2.27;;
7575;SDS011;3829;50.798;4.358;2023-03-14T10:48:40;7.50;;;2.17;;
7575;SDS011;3829;50.798;4.358;2023-03-14T10:51:26;6.70;;;2.20;;
7575;SDS011;3829;50.798;4.358;2023-03-14T10:56:26;4.83;;;2.20;;
7575;SDS011;3829;50.798;4.358;2023-03-14T10:58:57;5.87;;;2.20;;
7575;SDS011;3829;50.798;4.358;2023-03-14T11:01:26;9.53;;;2.10;;
7575;SDS011;3829;50.798;4.358;2023-03-14T11:04:20;5.27;;;1.90;;
7575;SDS011;3829;50.798;4.358;2023-03-14T11:07:17;5.43;;;1.60;;
7575;SDS011;3829;50.798;4.358;2023-03-14T11:29:53;5.90;;;2.13;;
7575;SDS011;3829;50.798;4.358;2023-03-14T11:32:43;1.63;;;1.40;;
7575;SDS011;3829;50.798;4.358;2023-03-14T11:35:16;3.50;;;1.50;;
7575;SDS011;3829;50.798;4.358;2023-03-14T11:37:56;2.30;;;1.03;;
7575;SDS011;3829;50.798;4.358;2023-03-14T11:40:29;2.87;;;1.03;;
7575;SDS011;3829;50.798;4.358;2023-03-14T11:43:01;3.90;;;1.43;;
7575;SDS011;3829;50.798;4.358;2023-03-14T11:45:45;3.97;;;1.50;;
7575;SDS011;3829;50.798;4.358;2023-03-14T11:50:58;2.37;;;1.20;;
7575;SDS011;3829;50.798;4.358;2023-03-14T11:53:36;1.80;;;1.33;;
7575;SDS011;3829;50.798;4.358;2023-03-14T11:56:22;1.60;;;1.20;;
7575;SDS011;3829;50.798;4.358;2023-03-14T11:59:04;1.33;;;1.23;;
7575;SDS011;3829;50.798;4.358;2023-03-14T12:01:38;1.30;;;1.17;;
7575;SDS011;3829;50.798;4.358;2023-03-14T12:06:57;1.70;;;1.23;;
7575;SDS011;3829;50.798;4.358;2023-03-14T12:09:28;2.03;;;1.53;;
7575;SDS011;3829;50.798;4.358;2023-03-14T12:11:56;6.30;;;1.87;;
7575;SDS011;3829;50.798;4.358;2023-03-14T12:14:25;2.50;;;1.60;;
7575;SDS011;3829;50.798;4.358;2023-03-14T12:16:53;1.97;;;1.70;;
7575;SDS011;3829;50.798;4.358;2023-03-14T12:19:39;3.20;;;1.80;;
7575;SDS011;3829;50.798;4.358;2023-03-14T12:25:13;3.00;;;2.13;;
7575;SDS011;3829;50.798;4.358;2023-03-14T12:30:33;2.90;;;2.13;;
7575;SDS011;3829;50.798;4.358;2023-03-14T12:35:39;4.03;;;2.03;;
7575;SDS011;3829;50.798;4.358;2023-03-14T12:43:27;3.13;;;2.30;;
7575;SDS011;3829;50.798;4.358;2023-03-14T12:48:39;4.83;;;2.57;;
7575;SDS011;3829;50.798;4.358;2023-03-14T12:51:12;3.30;;;1.97;;
7575;SDS011;3829;50.798;4.358;2023-03-14T12:56:28;2.60;;;1.90;;
7575;SDS011;3829;50.798;4.358;2023-03-14T13:01:28;5.17;;;2.20;;
7575;SDS011;3829;50.798;4.358;2023-03-14T13:03:55;4.50;;;2.30;;
7575;SDS011;3829;50.798;4.358;2023-03-14T13:12:14;5.10;;;2.07;;
7575;SDS011;3829;50.798;4.358;2023-03-14T13:14:43;2.17;;;1.93;;
7575;SDS011;3829;50.798;4.358;2023-03-14T13:17:14;4.57;;;2.40;;
7575;SDS011;3829;50.798;4.358;2023-03-14T13:19:44;7.67;;;2.30;;
7575;SDS011;3829;50.798;4.358;2023-03-14T13:22:25;2.37;;;2.00;;
7575;SDS011;3829;50.798;4.358;2023-03-14T13:25:02;3.97;;;2.40;;
7575;SDS011;3829;50.798;4.358;2023-03-14T13:27:31;4.17;;;2.13;;
7575;SDS011;3829;50.798;4.358;2023-03-14T13:29:58;5.03;;;2.27;;
7575;SDS011;3829;50.798;4.358;2023-03-14T13:32:29;2.27;;;1.97;;
7575;SDS011;3829;50.798;4.358;2023-03-14T13:34:55;2.37;;;2.17;;
7575;SDS011;3829;50.798;4.358;2023-03-14T13:37:22;4.53;;;2.50;;
7575;SDS011;3829;50.798;4.358;2023-03-14T13:39:50;6.87;;;2.67;;
7575;SDS011;3829;50.798;4.358;2023-03-14T13:42:20;18.17;;;2.80;;
7575;SDS011;3829;50.798;4.358;2023-03-14T13:44:51;7.30;;;2.43;;
7575;SDS011;3829;50.798;4.358;2023-03-14T13:47:19;9.97;;;2.67;;
7575;SDS011;3829;50.798;4.358;2023-03-14T13:49:46;10.43;;;3.13;;
7575;SDS011;3829;50.798;4.358;2023-03-14T13:52:30;12.83;;;2.40;;
7575;SDS011;3829;50.798;4.358;2023-03-14T13:54:57;15.10;;;2.47;;
7575;SDS011;3829;50.798;4.358;2023-03-14T13:57:25;13.03;;;2.17;;
7575;SDS011;3829;50.798;4.358;2023-03-14T14:02:26;10.00;;;2.40;;
7575;SDS011;3829;50.798;4.358;2023-03-14T14:04:52;12.83;;;2.47;;
7575;SDS011;3829;50.798;4.358;2023-03-14T14:07:18;7.77;;;2.10;;
7575;SDS011;3829;50.798;4.358;2023-03-14T14:09:46;11.03;;;2.70;;
7575;SDS011;3829;50.798;4.358;2023-03-14T14:12:17;10.73;;;2.57;;
7575;SDS011;3829;50.798;4.358;2023-03-14T14:17:53;10.03;;;2.47;;
7575;SDS011;3829;50.798;4.358;2023-03-14T14:22:59;20.40;;;2.67;;
7575;SDS011;3829;50.798;4.358;2023-03-14T14:25:28;15.33;;;2.43;;
7575;SDS011;3829;50.798;4.358;2023-03-14T14:27:54;6.60;;;1.83;;
7575;SDS011;3829;50.798;4.358;2023-03-14T14:32:47;6.60;;;2.87;;
7575;SDS011;3829;50.798;4.358;2023-03-14T14:37:51;6.83;;;1.77;;
7575;SDS011;3829;50.798;4.358;2023-03-14T14:40:19;14.60;;;1.93;;
7575;SDS011;3829;50.798;4.358;2023-03-14T14:42:55;9.03;;;2.20;;
7575;SDS011;3829;50.798;4.358;2023-03-14T14:45:28;5.63;;;2.20;;
7575;SDS011;3829;50.798;4.358;2023-03-14T14:47:54;9.50;;;2.53;;
7575;SDS011;3829;50.798;4.358;2023-03-14T14:50:32;5.13;;;1.60;;
7575;SDS011;3829;50.798;4.358;2023-03-14T14:53:03;9.93;;;1.67;;
7575;SDS011;3829;50.798;4.358;2023-03-14T14:55:54;6.43;;;1.87;;
7575;SDS011;3829;50.798;4.358;2023-03-14T15:01:04;4.53;;;1.47;;
7575;SDS011;3829;50.798;4.358;2023-03-14T15:03:35;5.67;;;1.80;;
7575;SDS011;3829;50.798;4.358;2023-03-14T15:06:01;1.87;;;1.23;;
7575;SDS011;3829;50.798;4.358;2023-03-14T15:08:28;3.90;;;1.37;;
7575;SDS011;3829;50.798;4.358;2023-03-14T15:10:54;3.73;;;1.60;;
7575;SDS011;3829;50.798;4.358;2023-03-14T15:13:20;2.20;;;0.90;;
7575;SDS011;3829;50.798;4.358;2023-03-14T15:15:46;4.87;;;2.27;;
7575;SDS011;3829;50.798;4.358;2023-03-14T15:18:14;2.57;;;1.37;;
7575;SDS011;3829;50.798;4.358;2023-03-14T15:20:43;2.40;;;0.90;;
7575;SDS011;3829;50.798;4.358;2023-03-14T15:23:10;2.50;;;1.30;;
7575;SDS011;3829;50.798;4.358;2023-03-14T15:25:37;4.30;;;1.10;;
7575;SDS011;3829;50.798;4.358;2023-03-14T15:28:08;2.80;;;1.27;;
7575;SDS011;3829;50.798;4.358;2023-03-14T15:30:44;6.40;;;0.97;;
7575;SDS011;3829;50.798;4.358;2023-03-14T15:33:12;2.90;;;1.03;;
7575;SDS011;3829;50.798;4.358;2023-03-14T15:35:40;3.27;;;0.90;;
7575;SDS011;3829;50.798;4.358;2023-03-14T15:38:11;4.90;;;1.50;;
7575;SDS011;3829;50.798;4.358;2023-03-14T15:40:38;1.87;;;0.90;;
7575;SDS011;3829;50.798;4.358;2023-03-14T15:43:04;2.23;;;0.90;;
7575;SDS011;3829;50.798;4.358;2023-03-14T15:45:29;2.30;;;0.97;;
7575;SDS011;3829;50.798;4.358;2023-03-14T15:47:55;3.80;;;0.90;;
7575;SDS011;3829;50.798;4.358;2023-03-14T15:50:21;7.03;;;1.07;;
7575;SDS011;3829;50.798;4.358;2023-03-14T15:52:46;1.90;;;1.17;;
7575;SDS011;3829;50.798;4.358;2023-03-14T15:55:13;2.30;;;0.90;;
7575;SDS011;3829;50.798;4.358;2023-03-14T15:57:39;2.90;;;1.00;;
7575;SDS011;3829;50.798;4.358;2023-03-14T16:00:06;3.93;;;1.90;;
7575;SDS011;3829;50.798;4.358;2023-03-14T16:02:36;5.10;;;1.30;;
7575;SDS011;3829;50.798;4.358;2023-03-14T16:05:06;4.13;;;1.20;;
7575;SDS011;3829;50.798;4.358;2023-03-14T16:07:32;3.33;;;1.23;;
7575;SDS011;3829;50.798;4.358;2023-03-14T16:09:58;2.13;;;1.30;;
7575;SDS011;3829;50.798;4.358;2023-03-14T16:12:23;3.13;;;1.10;;
7575;SDS011;3829;50.798;4.358;2023-03-14T16:14:49;4.00;;;1.40;;
7575;SDS011;3829;50.798;4.358;2023-03-14T16:17:14;7.30;;;1.23;;
7575;SDS011;3829;50.798;4.358;2023-03-14T16:19:40;3.73;;;1.30;;
7575;SDS011;3829;50.798;4.358;2023-03-14T16:22:06;2.70;;;1.20;;
7575;SDS011;3829;50.798;4.358;2023-03-14T16:24:31;4.50;;;1.57;;
7575;SDS011;3829;50.798;4.358;2023-03-14T16:26:57;2.83;;;1.37;;
7575;SDS011;3829;50.798;4.358;2023-03-14T16:29:22;7.47;;;1.47;;
7575;SDS011;3829;50.798;4.358;2023-03-14T16:31:48;2.77;;;1.07;;
7575;SDS011;3829;50.798;4.358;2023-03-14T16:34:14;3.37;;;1.30;;
7575;SDS011;3829;50.798;4.358;2023-03-14T16:36:39;5.03;;;1.57;;
7575;SDS011;3829;50.798;4.358;2023-03-14T16:39:05;6.73;;;1.70;;
7575;SDS011;3829;50.798;4.358;2023-03-14T16:41:30;5.97;;;1.60;;
7575;SDS011;3829;50.798;4.358;2023-03-14T16:43:57;2.43;;;1.43;;